createdAt,value
2019-03-28T00:00:47.425Z,10.70
2019-03-28T00:03:15.923Z,13.50
2019-03-28T00:05:44.265Z,11.30
2019-03-28T00:08:12.814Z,10.70
2019-03-28T00:10:41.277Z,9.67
2019-03-28T00:13:10.140Z,12.43
2019-03-28T00:15:38.773Z,9.87
2019-03-28T00:18:07.258Z,13.10
2019-03-28T00:20:35.700Z,11.93
2019-03-28T00:23:21.707Z,11.97
2019-03-28T00:25:50.198Z,11.70
2019-03-28T00:28:18.560Z,14.53
2019-03-28T00:30:47.052Z,12.87
2019-03-28T00:33:15.438Z,15.57
2019-03-28T00:35:43.810Z,16.00
2019-03-28T00:38:12.192Z,12.80
2019-03-28T00:40:40.609Z,13.47
2019-03-28T00:43:09.118Z,17.83
2019-03-28T00:45:37.420Z,13.17
2019-03-28T00:48:06.027Z,20.83
2019-03-28T00:50:34.501Z,14.10
2019-03-28T00:53:03.095Z,16.37
2019-03-28T00:55:31.549Z,16.43
2019-03-28T00:58:00.160Z,13.13
2019-03-28T01:00:28.679Z,16.47
2019-03-28T01:02:57.076Z,15.70
2019-03-28T01:05:25.541Z,17.07
2019-03-28T01:07:54.062Z,19.60
2019-03-28T01:10:22.910Z,14.60
2019-03-28T01:12:51.408Z,14.47
2019-03-28T01:15:19.755Z,12.90
2019-03-28T01:17:48.114Z,12.20
2019-03-28T01:20:16.605Z,12.90
2019-03-28T01:22:45.010Z,13.30
2019-03-28T01:25:13.417Z,10.70
2019-03-28T01:27:41.871Z,12.50
2019-03-28T01:30:10.731Z,12.10
2019-03-28T01:32:39.231Z,10.50
2019-03-28T01:35:07.624Z,11.13
2019-03-28T01:37:36.033Z,10.97
2019-03-28T01:40:04.488Z,11.30
2019-03-28T01:42:32.796Z,11.73
2019-03-28T01:45:01.178Z,14.13
2019-03-28T01:47:29.597Z,10.50
2019-03-28T01:49:57.963Z,10.37
2019-03-28T01:52:26.311Z,11.87
2019-03-28T01:54:55.248Z,9.97
2019-03-28T01:57:23.810Z,12.67
2019-03-28T01:59:52.205Z,13.50
2019-03-28T02:02:20.838Z,13.40
2019-03-28T02:04:49.244Z,13.30
2019-03-28T02:07:17.707Z,12.97
2019-03-28T02:09:46.126Z,10.87
2019-03-28T02:12:14.562Z,13.73
2019-03-28T02:14:42.934Z,11.17
2019-03-28T02:17:12.097Z,10.27
2019-03-28T02:19:40.525Z,11.03
2019-03-28T02:22:08.940Z,11.10
2019-03-28T02:24:37.314Z,10.53
2019-03-28T02:27:05.793Z,10.43
2019-03-28T02:29:34.202Z,12.07
2019-03-28T02:32:02.575Z,13.07
2019-03-28T02:34:30.946Z,10.53
2019-03-28T02:36:59.265Z,9.83
2019-03-28T02:39:27.670Z,9.03
2019-03-28T02:41:56.031Z,8.73
2019-03-28T02:44:24.424Z,9.60
2019-03-28T02:46:52.786Z,8.83
2019-03-28T02:49:21.196Z,8.50
2019-03-28T02:51:49.595Z,8.57
2019-03-28T02:54:17.959Z,8.60
2019-03-28T02:56:46.340Z,9.73
2019-03-28T02:59:14.876Z,10.43
2019-03-28T03:01:43.253Z,10.20
2019-03-28T03:04:11.761Z,8.63
2019-03-28T03:06:40.120Z,8.97
2019-03-28T03:09:09.756Z,8.80
2019-03-28T03:11:38.231Z,9.63
2019-03-28T03:14:06.621Z,11.30
2019-03-28T03:16:34.996Z,8.73
2019-03-28T03:19:03.693Z,9.10
2019-03-28T03:21:32.051Z,8.57
2019-03-28T03:24:00.486Z,8.00
2019-03-28T03:26:28.908Z,12.03
2019-03-28T03:28:58.446Z,8.13
2019-03-28T03:31:26.834Z,8.40
2019-03-28T03:33:55.206Z,8.13
2019-03-28T03:36:23.565Z,8.47
2019-03-28T03:38:52.039Z,11.93
2019-03-28T03:41:20.458Z,8.40
2019-03-28T03:43:49.687Z,8.53
2019-03-28T03:46:18.229Z,8.83
2019-03-28T03:48:46.651Z,8.90
2019-03-28T03:51:15.048Z,7.77
2019-03-28T03:53:43.452Z,7.47
2019-03-28T03:56:11.867Z,9.77
2019-03-28T03:58:40.325Z,8.30
2019-03-28T04:01:08.708Z,7.67
2019-03-28T04:03:37.457Z,9.10
2019-03-28T04:06:05.881Z,12.10
2019-03-28T04:08:34.355Z,10.87
2019-03-28T04:11:02.735Z,12.37
2019-03-28T04:13:31.250Z,9.50
2019-03-28T04:15:59.710Z,8.43
2019-03-28T04:18:28.415Z,10.93
2019-03-28T04:20:56.769Z,9.00
2019-03-28T04:23:25.264Z,7.63
2019-03-28T04:25:53.850Z,9.43
2019-03-28T04:28:31.595Z,9.43
2019-03-28T04:30:52.487Z,8.40
2019-03-28T04:33:20.885Z,9.37
2019-03-28T04:35:49.560Z,9.40
2019-03-28T04:38:17.993Z,8.17
2019-03-28T04:40:46.436Z,11.93
2019-03-28T04:43:15.220Z,8.33
2019-03-28T04:45:43.654Z,8.23
2019-03-28T04:48:12.088Z,8.60
2019-03-28T04:50:40.536Z,7.83
2019-03-28T04:53:08.924Z,7.97
2019-03-28T04:55:37.397Z,9.93
2019-03-28T04:58:05.979Z,8.40
2019-03-28T05:00:34.422Z,8.60
2019-03-28T05:03:03.071Z,8.33
2019-03-28T05:05:32.381Z,9.20
2019-03-28T05:08:00.931Z,8.37
2019-03-28T05:10:29.411Z,10.57
2019-03-28T05:12:57.932Z,8.00
2019-03-28T05:15:26.527Z,9.93
2019-03-28T05:17:55.034Z,9.40
2019-03-28T05:20:23.444Z,9.77
2019-03-28T05:22:52.002Z,7.97
2019-03-28T05:25:20.401Z,9.13
2019-03-28T05:27:48.837Z,9.40
2019-03-28T05:30:17.572Z,9.53
2019-03-28T05:32:46.109Z,10.53
2019-03-28T05:35:14.609Z,13.27
2019-03-28T05:37:43.004Z,12.40
2019-03-28T05:40:11.534Z,9.07
2019-03-28T05:42:40.321Z,12.30
2019-03-28T05:45:08.927Z,7.90
2019-03-28T05:47:37.356Z,11.67
2019-03-28T05:50:06.442Z,8.90
2019-03-28T05:52:34.868Z,11.43
2019-03-28T05:55:05.342Z,11.23
2019-03-28T05:57:33.423Z,14.07
2019-03-28T06:00:02.002Z,10.63
2019-03-28T06:02:30.415Z,10.00
2019-03-28T06:04:58.848Z,10.07
2019-03-28T06:07:27.341Z,10.47
2019-03-28T06:09:56.222Z,10.03
2019-03-28T06:12:25.417Z,10.70
2019-03-28T06:14:54.218Z,16.23
2019-03-28T06:17:22.654Z,10.93
2019-03-28T06:19:51.053Z,16.03
2019-03-28T06:22:19.761Z,10.13
2019-03-28T06:24:48.257Z,11.57
2019-03-28T06:27:16.755Z,12.23
2019-03-28T06:29:45.134Z,9.70
2019-03-28T06:32:13.491Z,11.23
2019-03-28T06:34:42.007Z,14.40
2019-03-28T06:37:10.906Z,9.40
2019-03-28T06:39:39.382Z,10.90
2019-03-28T06:42:07.908Z,9.33
2019-03-28T06:44:36.308Z,9.13
2019-03-28T06:47:04.930Z,10.40
2019-03-28T06:49:35.674Z,8.47
2019-03-28T06:52:04.103Z,11.10
2019-03-28T06:54:32.987Z,12.23
2019-03-28T06:57:01.522Z,12.50
2019-03-28T06:59:37.274Z,9.13
2019-03-28T07:02:00.212Z,9.47
2019-03-28T07:04:28.679Z,10.50
2019-03-28T07:06:57.128Z,11.10
2019-03-28T07:09:28.381Z,12.50
2019-03-28T07:11:57.502Z,10.07
2019-03-28T07:14:25.982Z,10.93
2019-03-28T07:16:54.471Z,9.97
2019-03-28T07:19:22.998Z,8.60
2019-03-28T07:21:51.499Z,9.67
2019-03-28T07:24:19.908Z,7.93
2019-03-28T07:26:48.369Z,8.10
2019-03-28T07:29:16.773Z,10.93
2019-03-28T07:31:45.182Z,9.90
2019-03-28T07:34:13.801Z,8.63
2019-03-28T07:36:42.217Z,11.33
2019-03-28T07:39:19.084Z,8.67
2019-03-28T07:41:53.106Z,7.50
2019-03-28T07:44:21.578Z,7.50
2019-03-28T07:46:51.486Z,8.60
2019-03-28T07:49:20.047Z,8.53
2019-03-28T07:51:48.766Z,7.10
2019-03-28T07:54:17.156Z,7.63
2019-03-28T07:56:45.634Z,6.67
2019-03-28T07:59:13.967Z,8.37
2019-03-28T08:01:43.442Z,7.90
2019-03-28T08:04:12.368Z,8.70
2019-03-28T08:06:49.715Z,7.23
2019-03-28T08:09:11.322Z,10.70
2019-03-28T08:11:39.727Z,10.40
2019-03-28T08:14:08.370Z,7.63
2019-03-28T08:16:36.763Z,9.20
2019-03-28T08:19:07.884Z,11.50
2019-03-28T08:21:35.300Z,9.03
2019-03-28T08:24:03.740Z,13.90
2019-03-28T08:26:32.144Z,9.70
2019-03-28T08:29:00.531Z,8.73
2019-03-28T08:31:28.886Z,13.77
2019-03-28T08:33:57.337Z,10.63
2019-03-28T08:36:27.099Z,10.13
2019-03-28T08:38:55.727Z,11.07
2019-03-28T08:41:24.147Z,11.33
2019-03-28T08:43:52.560Z,10.83
2019-03-28T08:46:20.988Z,10.10
2019-03-28T08:48:49.399Z,14.37
2019-03-28T08:51:17.798Z,16.33
2019-03-28T08:53:46.206Z,12.97
2019-03-28T08:56:14.619Z,11.33
2019-03-28T08:58:43.019Z,13.73
2019-03-28T09:01:11.462Z,15.57
2019-03-28T09:03:39.911Z,14.47
2019-03-28T09:06:08.383Z,13.90
2019-03-28T09:08:36.817Z,13.40
2019-03-28T09:11:05.289Z,12.53
2019-03-28T09:13:33.763Z,13.77
2019-03-28T09:16:02.244Z,18.20
2019-03-28T09:18:30.607Z,17.37
2019-03-28T09:20:58.987Z,13.87
2019-03-28T09:23:27.304Z,12.17
2019-03-28T09:25:55.735Z,13.37
2019-03-28T09:28:24.230Z,14.40
2019-03-28T09:30:52.630Z,11.77
2019-03-28T09:33:21.043Z,11.27
2019-03-28T09:35:49.506Z,14.40
2019-03-28T09:38:18.002Z,10.10
2019-03-28T09:40:46.397Z,11.57
2019-03-28T09:43:14.797Z,12.10
2019-03-28T09:45:43.197Z,14.00
2019-03-28T09:48:12.114Z,11.57
2019-03-28T09:50:40.871Z,11.57
2019-03-28T09:53:09.338Z,11.93
2019-03-28T09:55:38.045Z,12.20
2019-03-28T09:58:06.473Z,15.03
2019-03-28T10:00:34.915Z,11.77
2019-03-28T10:03:03.301Z,13.07
2019-03-28T10:05:31.725Z,12.70
2019-03-28T10:08:00.154Z,12.33
2019-03-28T10:10:28.772Z,11.30
2019-03-28T10:12:57.411Z,11.37
2019-03-28T10:15:25.840Z,10.53
2019-03-28T10:17:54.882Z,12.30
2019-03-28T10:20:23.508Z,11.77
2019-03-28T10:22:51.923Z,9.87
2019-03-28T10:25:20.765Z,12.77
2019-03-28T10:27:49.327Z,8.77
2019-03-28T10:30:19.199Z,13.10
2019-03-28T10:32:47.754Z,8.77
2019-03-28T10:35:28.455Z,12.63
2019-03-28T10:37:56.923Z,9.77
2019-03-28T10:40:25.318Z,8.93
2019-03-28T10:42:53.837Z,9.90
2019-03-28T10:45:22.384Z,10.60
2019-03-28T10:47:50.807Z,10.63
2019-03-28T10:50:19.243Z,9.70
2019-03-28T10:52:47.618Z,10.60
2019-03-28T10:55:16.749Z,11.40
2019-03-28T10:57:45.320Z,13.50
2019-03-28T11:00:23.820Z,13.37
2019-03-28T11:02:44.238Z,9.57
2019-03-28T11:05:12.700Z,10.10
2019-03-28T11:07:41.053Z,8.73
2019-03-28T11:10:09.489Z,13.10
2019-03-28T11:12:37.915Z,7.70
2019-03-28T11:15:06.777Z,10.73
2019-03-28T11:17:35.155Z,9.63
2019-03-28T11:20:03.508Z,10.23
2019-03-28T11:22:31.977Z,12.30
2019-03-28T11:25:00.399Z,9.43
2019-03-28T11:27:28.907Z,9.80
2019-03-28T11:29:57.333Z,9.33
2019-03-28T11:32:25.718Z,8.87
2019-03-28T11:34:54.077Z,11.33
2019-03-28T11:37:26.238Z,8.43
2019-03-28T11:39:54.025Z,7.20
2019-03-28T11:42:22.444Z,8.93
2019-03-28T11:44:50.895Z,7.20
2019-03-28T11:47:22.054Z,9.70
2019-03-28T11:49:49.348Z,9.77
2019-03-28T11:52:17.775Z,6.33
2019-03-28T11:54:46.143Z,8.77
2019-03-28T11:57:15.811Z,7.70
2019-03-28T11:59:44.668Z,6.53
2019-03-28T12:02:19.701Z,7.87
2019-03-28T12:04:43.425Z,9.07
2019-03-28T12:07:12.322Z,6.87
2019-03-28T12:09:40.645Z,7.67
2019-03-28T12:12:09.070Z,6.03
2019-03-28T12:14:38.622Z,7.47
2019-03-28T12:17:07.467Z,6.17
2019-03-28T12:19:36.350Z,6.90
2019-03-28T12:22:05.012Z,10.40
2019-03-28T12:24:33.580Z,7.67
2019-03-28T12:27:01.986Z,6.47
2019-03-28T12:29:30.549Z,9.30
2019-03-28T12:31:58.941Z,7.73
2019-03-28T12:34:27.311Z,7.60
2019-03-28T12:36:55.744Z,6.17
2019-03-28T12:39:24.175Z,6.87
2019-03-28T12:41:53.021Z,7.70
2019-03-28T12:44:21.500Z,7.50
2019-03-28T12:46:50.834Z,9.00
2019-03-28T12:49:20.065Z,5.30
2019-03-28T12:51:48.782Z,6.43
2019-03-28T12:54:17.132Z,7.70
2019-03-28T12:56:45.510Z,6.80
2019-03-28T12:59:14.710Z,5.67
2019-03-28T13:01:43.306Z,5.47
2019-03-28T13:04:11.900Z,5.63
2019-03-28T13:06:40.841Z,6.60
2019-03-28T13:09:09.940Z,5.50
2019-03-28T13:11:38.585Z,6.70
2019-03-28T13:14:07.082Z,5.10
2019-03-28T13:16:35.487Z,7.93
2019-03-28T13:19:03.904Z,10.30
2019-03-28T13:21:32.410Z,5.23
2019-03-28T13:24:00.859Z,5.57
2019-03-28T13:26:29.269Z,5.50
2019-03-28T13:28:57.930Z,5.30
2019-03-28T13:31:26.819Z,6.87
2019-03-28T13:33:55.247Z,6.23
2019-03-28T13:36:23.763Z,5.47
2019-03-28T13:38:52.605Z,4.83
2019-03-28T13:41:21.680Z,5.30
2019-03-28T13:43:50.453Z,4.73
2019-03-28T13:46:19.481Z,4.20
2019-03-28T13:48:47.829Z,5.07
2019-03-28T13:51:16.284Z,9.63
2019-03-28T13:53:44.791Z,6.53
2019-03-28T13:56:13.207Z,5.73
2019-03-28T13:58:41.649Z,5.30
2019-03-28T14:01:10.135Z,5.97
2019-03-28T14:03:38.551Z,6.73
2019-03-28T14:06:07.217Z,4.53
2019-03-28T14:08:35.585Z,5.67
2019-03-28T14:11:04.084Z,6.00
2019-03-28T14:13:32.468Z,7.60
2019-03-28T14:16:00.997Z,6.60
2019-03-28T14:18:29.442Z,4.50
2019-03-28T14:20:57.868Z,4.37
2019-03-28T14:23:26.288Z,3.23
2019-03-28T14:25:54.710Z,7.23
2019-03-28T14:28:23.246Z,2.83
2019-03-28T14:30:51.639Z,4.17
2019-03-28T14:33:20.025Z,2.93
2019-03-28T14:35:48.457Z,3.93
2019-03-28T14:38:16.951Z,2.90
2019-03-28T14:40:45.388Z,3.97
2019-03-28T14:43:13.771Z,4.57
2019-03-28T14:45:42.222Z,4.53
2019-03-28T14:48:10.750Z,5.13
2019-03-28T14:50:40.448Z,2.63
2019-03-28T14:53:09.027Z,3.50
2019-03-28T14:55:37.588Z,3.10
2019-03-28T14:58:06.840Z,2.97
2019-03-28T15:00:47.090Z,3.07
2019-03-28T15:03:25.776Z,3.43
2019-03-28T15:05:46.203Z,5.30
2019-03-28T15:08:14.732Z,5.93
2019-03-28T15:10:43.309Z,6.17
2019-03-28T15:13:11.811Z,5.60
2019-03-28T15:15:40.384Z,5.13
2019-03-28T15:18:08.782Z,7.70
2019-03-28T15:20:37.218Z,6.47
2019-03-28T15:23:05.795Z,7.57
2019-03-28T15:25:34.242Z,5.10
2019-03-28T15:28:02.802Z,9.00
2019-03-28T15:30:34.539Z,4.73
2019-03-28T15:33:02.953Z,6.80
2019-03-28T15:35:31.463Z,6.40
2019-03-28T15:37:59.883Z,7.07
2019-03-28T15:40:28.234Z,6.90
2019-03-28T15:42:56.745Z,6.23
2019-03-28T15:45:25.174Z,6.67
2019-03-28T15:47:53.595Z,6.53
2019-03-28T15:50:21.996Z,8.43
2019-03-28T15:52:50.637Z,6.10
2019-03-28T15:55:19.349Z,7.80
2019-03-28T15:57:47.813Z,6.80
2019-03-28T16:00:16.375Z,8.03
2019-03-28T16:02:44.747Z,10.07
2019-03-28T16:05:13.266Z,6.03
2019-03-28T16:07:41.723Z,6.87
2019-03-28T16:10:10.584Z,6.10
2019-03-28T16:12:39.196Z,7.03
2019-03-28T16:15:08.455Z,7.83
2019-03-28T16:17:37.085Z,6.63
2019-03-28T16:20:05.634Z,6.13
2019-03-28T16:22:34.017Z,6.70
2019-03-28T16:25:02.618Z,6.20
2019-03-28T16:27:31.114Z,7.10
2019-03-28T16:29:59.991Z,7.93
2019-03-28T16:32:28.920Z,5.40
2019-03-28T16:34:57.358Z,8.60
2019-03-28T16:37:25.815Z,5.97
2019-03-28T16:39:54.291Z,7.50
2019-03-28T16:42:22.692Z,5.13
2019-03-28T16:44:51.565Z,4.30
2019-03-28T16:47:20.149Z,3.37
2019-03-28T16:49:48.622Z,3.40
2019-03-28T16:52:18.017Z,3.97
2019-03-28T16:54:46.585Z,4.70
2019-03-28T16:57:15.162Z,3.70
2019-03-28T16:59:43.632Z,3.33
2019-03-28T17:02:12.264Z,4.00
2019-03-28T17:04:40.765Z,3.63
2019-03-28T17:07:09.450Z,3.20
2019-03-28T17:09:39.118Z,2.63
2019-03-28T17:12:08.580Z,3.00
2019-03-28T17:14:37.423Z,3.30
2019-03-28T17:17:05.819Z,4.20
2019-03-28T17:19:34.339Z,3.30
2019-03-28T17:22:05.319Z,3.50
2019-03-28T17:24:34.352Z,3.13
2019-03-28T17:27:05.534Z,3.33
2019-03-28T17:29:34.218Z,3.33
2019-03-28T17:32:02.813Z,5.70
2019-03-28T17:34:35.070Z,4.77
2019-03-28T17:37:01.212Z,3.40
2019-03-28T17:39:29.621Z,3.50
2019-03-28T17:41:58.029Z,4.10
2019-03-28T17:44:26.622Z,3.73
2019-03-28T17:46:55.184Z,3.90
2019-03-28T17:49:23.512Z,4.17
2019-03-28T17:51:52.025Z,4.20
2019-03-28T17:54:20.518Z,4.33
2019-03-28T17:56:49.099Z,4.67
2019-03-28T17:59:17.505Z,4.80
2019-03-28T18:01:47.740Z,3.73
2019-03-28T18:04:22.773Z,3.73
2019-03-28T18:06:46.393Z,3.40
2019-03-28T18:09:15.078Z,3.70
2019-03-28T18:11:43.834Z,8.13
2019-03-28T18:14:13.302Z,3.90
2019-03-28T18:16:42.049Z,3.70
2019-03-28T18:19:10.652Z,7.33
2019-03-28T18:21:39.008Z,4.50
2019-03-28T18:24:07.501Z,4.47
2019-03-28T18:26:35.951Z,4.53
2019-03-28T18:29:04.332Z,3.90
2019-03-28T18:31:32.730Z,3.63
2019-03-28T18:34:01.260Z,3.40
2019-03-28T18:36:29.810Z,3.47
2019-03-28T18:38:58.518Z,4.10
2019-03-28T18:41:29.748Z,6.23
2019-03-28T18:43:58.136Z,3.20
2019-03-28T18:46:26.920Z,3.20
2019-03-28T18:48:55.365Z,3.80
2019-03-28T18:51:24.086Z,4.60
2019-03-28T18:53:52.654Z,4.20
2019-03-28T18:56:21.276Z,3.57
2019-03-28T18:58:50.454Z,4.37
2019-03-28T19:01:18.919Z,3.00
2019-03-28T19:03:47.357Z,3.90
2019-03-28T19:06:16.839Z,4.43
2019-03-28T19:08:46.168Z,3.30
2019-03-28T19:11:14.583Z,4.07
2019-03-28T19:13:43.219Z,4.40
2019-03-28T19:16:11.797Z,4.47
2019-03-28T19:18:40.256Z,4.40
2019-03-28T19:21:08.861Z,4.20
2019-03-28T19:23:37.208Z,6.37
2019-03-28T19:26:05.865Z,4.63
2019-03-28T19:28:34.509Z,5.93
2019-03-28T19:31:03.428Z,4.40
2019-03-28T19:33:31.916Z,5.00
2019-03-28T19:36:01.415Z,4.90
2019-03-28T19:38:30.919Z,3.70
2019-03-28T19:41:02.834Z,4.83
2019-03-28T19:43:31.988Z,5.57
2019-03-28T19:46:00.613Z,5.63
2019-03-28T19:48:29.154Z,4.40
2019-03-28T19:51:00.319Z,5.90
2019-03-28T19:53:28.718Z,6.10
2019-03-28T19:55:57.293Z,5.43
2019-03-28T19:58:25.832Z,4.53
2019-03-28T20:00:54.373Z,4.37
2019-03-28T20:03:23.465Z,4.03
2019-03-28T20:05:52.201Z,5.20
2019-03-28T20:08:20.748Z,4.60
2019-03-28T20:10:49.244Z,4.27
2019-03-28T20:13:17.805Z,5.17
2019-03-28T20:15:46.369Z,7.00
2019-03-28T20:18:14.853Z,6.20
2019-03-28T20:20:43.465Z,4.60
2019-03-28T20:23:12.052Z,4.00
2019-03-28T20:25:42.867Z,4.90
2019-03-28T20:28:14.234Z,4.10
2019-03-28T20:30:41.293Z,4.20
2019-03-28T20:33:09.916Z,5.67
2019-03-28T20:35:38.323Z,5.73
2019-03-28T20:38:06.758Z,4.80
2019-03-28T20:40:35.166Z,6.53
2019-03-28T20:43:03.590Z,7.03
2019-03-28T20:45:32.044Z,9.00
2019-03-28T20:48:00.495Z,4.80
2019-03-28T20:50:31.719Z,5.40
2019-03-28T20:52:59.131Z,4.90
2019-03-28T20:55:27.575Z,6.43
2019-03-28T20:57:56.108Z,6.77
2019-03-28T21:00:38.923Z,5.73
2019-03-28T21:03:07.556Z,6.30
2019-03-28T21:05:35.954Z,8.00
2019-03-28T21:08:04.423Z,5.80
2019-03-28T21:10:33.593Z,6.23
2019-03-28T21:13:03.635Z,5.87
2019-03-28T21:15:32.470Z,5.87
2019-03-28T21:18:01.296Z,5.53
2019-03-28T21:20:29.631Z,7.73
2019-03-28T21:22:58.381Z,6.50
2019-03-28T21:25:29.636Z,6.53
2019-03-28T21:27:57.005Z,6.47
2019-03-28T21:30:27.076Z,6.60
2019-03-28T21:32:57.760Z,6.73
2019-03-28T21:35:26.248Z,6.10
2019-03-28T21:38:08.040Z,7.60
2019-03-28T21:40:36.707Z,7.00
2019-03-28T21:43:05.129Z,7.17
2019-03-28T21:45:33.676Z,7.60
2019-03-28T21:48:10.886Z,8.10
2019-03-28T21:50:43.037Z,8.50
2019-03-28T21:53:19.951Z,7.47
2019-03-28T21:56:02.075Z,7.03
2019-03-28T21:59:15.404Z,11.63
2019-03-28T22:01:57.057Z,7.77
2019-03-28T22:04:33.425Z,7.73
2019-03-28T22:07:08.235Z,7.23
2019-03-28T22:09:40.347Z,8.23
2019-03-28T22:12:15.286Z,7.97
2019-03-28T22:14:48.161Z,7.97
2019-03-28T22:17:27.830Z,7.97
2019-03-28T22:20:13.852Z,7.83
2019-03-28T22:22:45.153Z,9.73
2019-03-28T22:25:26.321Z,7.97
2019-03-28T22:28:23.366Z,8.10
2019-03-28T22:30:57.082Z,9.47
2019-03-28T22:33:51.735Z,12.33
2019-03-28T22:36:23.158Z,9.03
2019-03-28T22:38:55.388Z,7.30
2019-03-28T22:41:27.700Z,7.60
2019-03-28T22:43:56.996Z,7.83
2019-03-28T22:46:30.857Z,8.33
2019-03-28T22:49:33.806Z,10.10
2019-03-28T22:52:05.938Z,7.83
2019-03-28T22:54:44.294Z,8.50
2019-03-28T22:57:35.632Z,8.03
2019-03-28T23:00:18.901Z,7.77
2019-03-28T23:02:46.479Z,7.93
2019-03-28T23:05:18.800Z,9.83
2019-03-28T23:07:56.439Z,8.30
2019-03-28T23:10:24.937Z,9.63
2019-03-28T23:12:56.852Z,9.83
2019-03-28T23:15:29.480Z,12.20
2019-03-28T23:18:11.487Z,9.77
2019-03-28T23:20:44.806Z,7.73
2019-03-28T23:23:37.459Z,8.20
2019-03-28T23:26:15.298Z,9.33
2019-03-28T23:28:57.131Z,9.40
2019-03-28T23:31:38.276Z,9.50
2019-03-28T23:34:15.296Z,9.43
2019-03-28T23:36:47.873Z,8.23
2019-03-28T23:42:11.075Z,9.50
2019-03-28T23:44:45.993Z,9.37
2019-03-28T23:47:28.160Z,9.30
2019-03-28T23:50:02.416Z,9.80
2019-03-28T23:52:35.697Z,8.90
2019-03-28T23:55:18.234Z,9.87
2019-03-28T23:57:55.181Z,10.03
